sensor_id;sensor_type;location;lat;lon;timestamp;pressure;altitude;pressure_sealevel;temperature;humidity
70521;BME280;58442;52.716;23.560;2023-09-12T00:00:48;101244.15;;;17.44;75.12
70521;BME280;58442;52.716;23.560;2023-09-12T00:02:58;101239.00;;;17.42;75.10
70521;BME280;58442;52.716;23.560;2023-09-12T00:05:00;101242.93;;;17.41;75.08
70521;BME280;58442;52.716;23.560;2023-09-12T00:07:01;101242.93;;;17.41;75.12
70521;BME280;58442;52.716;23.560;2023-09-12T00:09:03;101236.65;;;17.41;75.11
70521;BME280;58442;52.716;23.560;2023-09-12T00:11:12;101237.04;;;17.39;75.07
70521;BME280;58442;52.716;23.560;2023-09-12T00:13:14;101232.72;;;17.38;75.13
70521;BME280;58442;52.716;23.560;2023-09-12T00:15:15;101232.32;;;17.36;75.15
70521;BME280;58442;52.716;23.560;2023-09-12T00:17:17;101232.67;;;17.35;75.15
70521;BME280;58442;52.716;23.560;2023-09-12T00:19:27;101238.55;;;17.33;75.20
70521;BME280;58442;52.716;23.560;2023-09-12T00:21:29;101239.34;;;17.34;75.19
70521;BME280;58442;52.716;23.560;2023-09-12T00:23:30;101237.38;;;17.34;75.13
70521;BME280;58442;52.716;23.560;2023-09-12T00:25:32;101236.59;;;17.34;75.13
70521;BME280;58442;52.716;23.560;2023-09-12T00:27:42;101238.17;;;17.35;75.06
70521;BME280;58442;52.716;23.560;2023-09-12T00:29:43;101239.74;;;17.36;75.01
70521;BME280;58442;52.716;23.560;2023-09-12T00:31:45;101240.55;;;17.36;74.97
70521;BME280;58442;52.716;23.560;2023-09-12T00:33:46;101240.55;;;17.36;74.95
70521;BME280;58442;52.716;23.560;2023-09-12T00:35:57;101243.30;;;17.36;74.92
70521;BME280;58442;52.716;23.560;2023-09-12T00:37:58;101239.74;;;17.36;74.88
70521;BME280;58442;52.716;23.560;2023-09-12T00:40:00;101238.17;;;17.35;74.83
70521;BME280;58442;52.716;23.560;2023-09-12T00:42:01;101242.09;;;17.34;74.84
70521;BME280;58442;52.716;23.560;2023-09-12T00:44:12;101236.20;;;17.32;74.85
70521;BME280;58442;52.716;23.560;2023-09-12T00:46:18;101234.62;;;17.31;74.88
70521;BME280;58442;52.716;23.560;2023-09-12T00:48:21;101239.34;;;17.30;74.93
70521;BME280;58442;52.716;23.560;2023-09-12T00:50:24;101237.73;;;17.29;74.92
70521;BME280;58442;52.716;23.560;2023-09-12T00:52:28;101238.90;;;17.28;74.92
70521;BME280;58442;52.716;23.560;2023-09-12T00:54:30;101233.41;;;17.28;74.96
70521;BME280;58442;52.716;23.560;2023-09-12T00:56:32;101233.41;;;17.28;74.94
70521;BME280;58442;52.716;23.560;2023-09-12T00:58:33;101231.84;;;17.27;74.91
70521;BME280;58442;52.716;23.560;2023-09-12T01:00:41;101233.80;;;17.27;74.87
70521;BME280;58442;52.716;23.560;2023-09-12T01:02:45;101223.58;;;17.23;74.81
70521;BME280;58442;52.716;23.560;2023-09-12T01:04:48;101225.54;;;17.23;74.93
70521;BME280;58442;52.716;23.560;2023-09-12T01:06:51;101233.35;;;17.21;74.96
70521;BME280;58442;52.716;23.560;2023-09-12T01:08:56;101229.41;;;17.18;75.00
70521;BME280;58442;52.716;23.560;2023-09-12T01:10:58;101234.51;;;17.16;75.03
70521;BME280;58442;52.716;23.560;2023-09-12T01:12:59;101231.77;;;17.16;75.05
70521;BME280;58442;52.716;23.560;2023-09-12T01:15:01;101224.66;;;17.15;75.01
70521;BME280;58442;52.716;23.560;2023-09-12T01:17:11;101225.05;;;17.14;75.01
70521;BME280;58442;52.716;23.560;2023-09-12T01:19:12;101222.68;;;17.09;75.13
70521;BME280;58442;52.716;23.560;2023-09-12T01:23:43;101230.49;;;17.07;75.14
70521;BME280;58442;52.716;23.560;2023-09-12T01:28:02;101218.31;;;17.04;75.01
70521;BME280;58442;52.716;23.560;2023-09-12T01:30:09;101225.33;;;17.02;75.18
70521;BME280;58442;52.716;23.560;2023-09-12T01:32:12;101222.98;;;17.00;75.23
70521;BME280;58442;52.716;23.560;2023-09-12T01:34:15;101226.11;;;16.99;75.25
70521;BME280;58442;52.716;23.560;2023-09-12T01:36:16;101226.88;;;16.99;75.23
70521;BME280;58442;52.716;23.560;2023-09-12T01:38:23;101223.74;;;16.97;75.22
70521;BME280;58442;52.716;23.560;2023-09-12T01:40:34;101230.77;;;16.94;75.26
70521;BME280;58442;52.716;23.560;2023-09-12T01:42:42;101225.27;;;16.94;75.33
70521;BME280;58442;52.716;23.560;2023-09-12T01:44:44;101230.37;;;16.92;75.36
70521;BME280;58442;52.716;23.560;2023-09-12T01:46:48;101225.25;;;16.91;75.39
70521;BME280;58442;52.716;23.560;2023-09-12T01:49:02;101231.54;;;16.91;75.41
70521;BME280;58442;52.716;23.560;2023-09-12T01:51:06;101235.86;;;16.92;75.39
70521;BME280;58442;52.716;23.560;2023-09-12T01:53:08;101225.25;;;16.91;75.36
70521;BME280;58442;52.716;23.560;2023-09-12T01:55:10;101232.30;;;16.88;75.34
70521;BME280;58442;52.716;23.560;2023-09-12T01:57:17;101219.72;;;16.87;75.34
70521;BME280;58442;52.716;23.560;2023-09-12T01:59:21;101229.91;;;16.87;75.35
70521;BME280;58442;52.716;23.560;2023-09-12T02:01:23;101235.40;;;16.87;75.31
70521;BME280;58442;52.716;23.560;2023-09-12T02:03:28;101225.98;;;16.84;75.30
70521;BME280;58442;52.716;23.560;2023-09-12T02:05:31;101227.89;;;16.80;75.38
70521;BME280;58442;52.716;23.560;2023-09-12T02:07:35;101231.42;;;16.81;75.35
70521;BME280;58442;52.716;23.560;2023-09-12T02:09:37;101221.61;;;16.80;75.33
70521;BME280;58442;52.716;23.560;2023-09-12T02:11:38;101221.61;;;16.80;75.28
70521;BME280;58442;52.716;23.560;2023-09-12T02:13:45;101218.87;;;16.80;75.28
70521;BME280;58442;52.716;23.560;2023-09-12T02:15:47;101227.49;;;16.78;75.28
70521;BME280;58442;52.716;23.560;2023-09-12T02:17:48;101225.13;;;16.77;75.27
70521;BME280;58442;52.716;23.560;2023-09-12T02:19:51;101225.51;;;16.75;75.29
70521;BME280;58442;52.716;23.560;2023-09-12T02:22:00;101224.72;;;16.75;75.32
70521;BME280;58442;52.716;23.560;2023-09-12T02:24:02;101223.90;;;16.74;75.34
70521;BME280;58442;52.716;23.560;2023-09-12T02:26:03;101221.16;;;16.74;75.30
70521;BME280;58442;52.716;23.560;2023-09-12T02:28:05;101231.00;;;16.75;75.26
70521;BME280;58442;52.716;23.560;2023-09-12T02:30:15;101225.51;;;16.75;75.29
70521;BME280;58442;52.716;23.560;2023-09-12T02:32:16;101228.25;;;16.75;75.24
70521;BME280;58442;52.716;23.560;2023-09-12T02:34:18;101218.41;;;16.74;75.20
70521;BME280;58442;52.716;23.560;2023-09-12T02:36:19;101221.16;;;16.74;75.17
70521;BME280;58442;52.716;23.560;2023-09-12T02:38:30;101225.08;;;16.73;75.14
70521;BME280;58442;52.716;23.560;2023-09-12T02:40:31;101225.08;;;16.73;75.15
70521;BME280;58442;52.716;23.560;2023-09-12T02:42:33;101225.08;;;16.73;75.09
70521;BME280;58442;52.716;23.560;2023-09-12T02:44:34;101224.67;;;16.71;75.09
70521;BME280;58442;52.716;23.560;2023-09-12T02:46:45;101226.98;;;16.69;75.12
70521;BME280;58442;52.716;23.560;2023-09-12T02:48:46;101225.76;;;16.66;75.17
70521;BME280;58442;52.716;23.560;2023-09-12T02:50:48;101226.14;;;16.65;75.20
70521;BME280;58442;52.716;23.560;2023-09-12T02:52:49;101219.87;;;16.64;75.18
70521;BME280;58442;52.716;23.560;2023-09-12T02:54:59;101221.82;;;16.64;75.15
70521;BME280;58442;52.716;23.560;2023-09-12T02:57:01;101220.25;;;16.63;75.12
70521;BME280;58442;52.716;23.560;2023-09-12T02:59:02;101221.77;;;16.60;75.12
70521;BME280;58442;52.716;23.560;2023-09-12T03:01:05;101221.75;;;16.57;75.18
70521;BME280;58442;52.716;23.560;2023-09-12T03:03:14;101216.99;;;16.54;75.27
70521;BME280;58442;52.716;23.560;2023-09-12T03:05:16;101219.34;;;16.52;75.32
70521;BME280;58442;52.716;23.560;2023-09-12T03:07:17;101215.02;;;16.51;75.36
70521;BME280;58442;52.716;23.560;2023-09-12T03:09:18;101217.77;;;16.51;75.34
70521;BME280;58442;52.716;23.560;2023-09-12T03:11:29;101220.91;;;16.53;75.34
70521;BME280;58442;52.716;23.560;2023-09-12T03:13:30;101219.34;;;16.52;75.30
70521;BME280;58442;52.716;23.560;2023-09-12T03:15:36;101219.34;;;16.52;75.28
70521;BME280;58442;52.716;23.560;2023-09-12T03:17:38;101215.80;;;16.51;75.27
70521;BME280;58442;52.716;23.560;2023-09-12T03:19:44;101215.02;;;16.51;75.31
70521;BME280;58442;52.716;23.560;2023-09-12T03:21:45;101221.68;;;16.50;75.32
70521;BME280;58442;52.716;23.560;2023-09-12T03:23:46;101226.38;;;16.49;75.32
70521;BME280;58442;52.716;23.560;2023-09-12T03:25:48;101217.36;;;16.49;75.33
70521;BME280;58442;52.716;23.560;2023-09-12T03:27:58;101219.31;;;16.48;75.35
70521;BME280;58442;52.716;23.560;2023-09-12T03:30:00;101219.66;;;16.47;75.35
70521;BME280;58442;52.716;23.560;2023-09-12T03:32:01;101223.59;;;16.46;75.39
70521;BME280;58442;52.716;23.560;2023-09-12T03:34:03;101222.79;;;16.45;75.40
70521;BME280;58442;52.716;23.560;2023-09-12T03:36:13;101218.85;;;16.43;75.46
70521;BME280;58442;52.716;23.560;2023-09-12T03:38:15;101226.30;;;16.42;75.54
70521;BME280;58442;52.716;23.560;2023-09-12T03:40:17;101224.73;;;16.41;75.57
70521;BME280;58442;52.716;23.560;2023-09-12T03:42:18;101219.23;;;16.41;75.57
70521;BME280;58442;52.716;23.560;2023-09-12T03:44:28;101220.38;;;16.40;75.64
70521;BME280;58442;52.716;23.560;2023-09-12T03:46:29;101216.85;;;16.39;75.71
70521;BME280;58442;52.716;23.560;2023-09-12T03:48:31;101226.24;;;16.38;75.79
70521;BME280;58442;52.716;23.560;2023-09-12T03:50:32;101225.46;;;16.38;75.88
70521;BME280;58442;52.716;23.560;2023-09-12T03:52:43;101224.67;;;16.37;75.97
70521;BME280;58442;52.716;23.560;2023-09-12T03:54:44;101227.41;;;16.37;76.06
70521;BME280;58442;52.716;23.560;2023-09-12T03:56:46;101225.46;;;16.38;76.08
70521;BME280;58442;52.716;23.560;2023-09-12T03:58:47;101227.03;;;16.39;76.11
70521;BME280;58442;52.716;23.560;2023-09-12T04:00:58;101233.69;;;16.38;76.12
70521;BME280;58442;52.716;23.560;2023-09-12T04:02:59;101242.32;;;16.40;76.18
70521;BME280;58442;52.716;23.560;2023-09-12T04:05:01;101234.91;;;16.40;76.16
70521;BME280;58442;52.716;23.560;2023-09-12T04:07:02;101236.48;;;16.41;76.12
70521;BME280;58442;52.716;23.560;2023-09-12T04:09:12;101233.37;;;16.43;76.10
70521;BME280;58442;52.716;23.560;2023-09-12T04:11:14;101231.41;;;16.44;76.10
70521;BME280;58442;52.716;23.560;2023-09-12T04:13:15;101234.14;;;16.44;76.08
70521;BME280;58442;52.716;23.560;2023-09-12T04:15:17;101235.32;;;16.43;76.07
70521;BME280;58442;52.716;23.560;2023-09-12T04:17:27;101238.84;;;16.43;76.11
70521;BME280;58442;52.716;23.560;2023-09-12T04:19:30;101233.37;;;16.43;76.14
70521;BME280;58442;52.716;23.560;2023-09-12T04:21:32;101234.14;;;16.44;76.16
70521;BME280;58442;52.716;23.560;2023-09-12T04:23:34;101231.41;;;16.44;76.14
70521;BME280;58442;52.716;23.560;2023-09-12T04:25:42;101234.14;;;16.44;76.17
70521;BME280;58442;52.716;23.560;2023-09-12T04:27:47;101238.46;;;16.45;76.23
70521;BME280;58442;52.716;23.560;2023-09-12T04:29:48;101233.77;;;16.45;76.23
70521;BME280;58442;52.716;23.560;2023-09-12T04:31:49;101243.57;;;16.46;76.23
70521;BME280;58442;52.716;23.560;2023-09-12T04:33:58;101239.69;;;16.47;76.25
70521;BME280;58442;52.716;23.560;2023-09-12T04:36:02;101237.35;;;16.49;76.24
70521;BME280;58442;52.716;23.560;2023-09-12T04:38:04;101240.50;;;16.51;76.23
70521;BME280;58442;52.716;23.560;2023-09-12T04:40:07;101233.46;;;16.54;76.20
70521;BME280;58442;52.716;23.560;2023-09-12T04:42:12;101231.16;;;16.56;76.18
70521;BME280;58442;52.716;23.560;2023-09-12T04:44:13;101239.80;;;16.58;76.20
70521;BME280;58442;52.716;23.560;2023-09-12T04:46:14;101244.89;;;16.59;76.20
70521;BME280;58442;52.716;23.560;2023-09-12T04:48:16;101241.42;;;16.62;76.19
70521;BME280;58442;52.716;23.560;2023-09-12T04:50:26;101245.35;;;16.65;76.20
70521;BME280;58442;52.716;23.560;2023-09-12T04:52:28;101245.76;;;16.67;76.20
70521;BME280;58442;52.716;23.560;2023-09-12T04:54:29;101246.63;;;16.71;76.20
70521;BME280;58442;52.716;23.560;2023-09-12T04:56:30;101236.05;;;16.73;76.18
70521;BME280;58442;52.716;23.560;2023-09-12T04:58:41;101244.72;;;16.75;76.24
70521;BME280;58442;52.716;23.560;2023-09-12T05:00:42;101249.83;;;16.77;76.31
70521;BME280;58442;52.716;23.560;2023-09-12T05:02:44;101256.91;;;16.81;76.29
70521;BME280;58442;52.716;23.560;2023-09-12T05:04:45;101254.21;;;16.85;76.31
70521;BME280;58442;52.716;23.560;2023-09-12T05:06:56;101251.09;;;16.86;76.30
70521;BME280;58442;52.716;23.560;2023-09-12T05:08:57;101257.42;;;16.90;76.36
70521;BME280;58442;52.716;23.560;2023-09-12T05:10:59;101255.07;;;16.92;76.36
70521;BME280;58442;52.716;23.560;2023-09-12T05:13:00;101253.55;;;16.95;76.36
70521;BME280;58442;52.716;23.560;2023-09-12T05:15:12;101248.45;;;16.97;76.39
70521;BME280;58442;52.716;23.560;2023-09-12T05:17:13;101253.97;;;17.01;76.41
70521;BME280;58442;52.716;23.560;2023-09-12T05:19:14;101254.80;;;17.05;76.38
70521;BME280;58442;52.716;23.560;2023-09-12T05:21:16;101254.03;;;17.08;76.34
70521;BME280;58442;52.716;23.560;2023-09-12T05:23:26;101258.79;;;17.11;76.31
70521;BME280;58442;52.716;23.560;2023-09-12T05:25:28;101257.61;;;17.12;76.36
70521;BME280;58442;52.716;23.560;2023-09-12T05:27:30;101261.55;;;17.14;76.36
70521;BME280;58442;52.716;23.560;2023-09-12T05:29:32;101261.59;;;17.18;76.36
70521;BME280;58442;52.716;23.560;2023-09-12T05:31:41;101259.25;;;17.20;76.37
70521;BME280;58442;52.716;23.560;2023-09-12T05:33:42;101259.64;;;17.22;76.27
70521;BME280;58442;52.716;23.560;2023-09-12T05:35:44;101261.26;;;17.27;76.38
70521;BME280;58442;52.716;23.560;2023-09-12T05:37:45;101271.13;;;17.31;76.37
70521;BME280;58442;52.716;23.560;2023-09-12T05:39:56;101264.86;;;17.34;76.37
70521;BME280;58442;52.716;23.560;2023-09-12T05:41:57;101266.48;;;17.39;76.38
70521;BME280;58442;52.716;23.560;2023-09-12T05:43:59;101264.52;;;17.43;76.35
70521;BME280;58442;52.716;23.560;2023-09-12T05:46:00;101261.82;;;17.46;76.33
70521;BME280;58442;52.716;23.560;2023-09-12T05:48:11;101263.79;;;17.49;76.33
70521;BME280;58442;52.716;23.560;2023-09-12T05:50:12;101271.29;;;17.53;76.36
70521;BME280;58442;52.716;23.560;2023-09-12T05:52:14;101270.52;;;17.56;76.40
70521;BME280;58442;52.716;23.560;2023-09-12T05:54:15;101265.05;;;17.59;76.38
70521;BME280;58442;52.716;23.560;2023-09-12T05:56:25;101270.56;;;17.63;76.37
70521;BME280;58442;52.716;23.560;2023-09-12T05:58:27;101268.64;;;17.67;76.35
70521;BME280;58442;52.716;23.560;2023-09-12T06:00:28;101274.14;;;17.70;76.36
70521;BME280;58442;52.716;23.560;2023-09-12T06:02:30;101278.93;;;17.73;76.33
70521;BME280;58442;52.716;23.560;2023-09-12T06:04:40;101277.36;;;17.76;76.32
70521;BME280;58442;52.716;23.560;2023-09-12T06:06:42;101275.04;;;17.78;76.33
70521;BME280;58442;52.716;23.560;2023-09-12T06:08:43;101286.04;;;17.82;76.33
70521;BME280;58442;52.716;23.560;2023-09-12T06:10:44;101282.55;;;17.85;76.33
70521;BME280;58442;52.716;23.560;2023-09-12T06:12:55;101276.27;;;17.88;76.34
70521;BME280;58442;52.716;23.560;2023-09-12T06:14:56;101281.02;;;17.94;76.33
70521;BME280;58442;52.716;23.560;2023-09-12T06:16:58;101276.70;;;17.97;76.30
70521;BME280;58442;52.716;23.560;2023-09-12T06:18:59;101274.38;;;17.99;76.24
70521;BME280;58442;52.716;23.560;2023-09-12T06:21:10;101278.70;;;18.03;76.26
70521;BME280;58442;52.716;23.560;2023-09-12T06:23:11;101274.81;;;18.08;76.26
70521;BME280;58442;52.716;23.560;2023-09-12T06:25:13;101278.73;;;18.11;76.27
70521;BME280;58442;52.716;23.560;2023-09-12T06:27:14;101271.70;;;18.13;76.29
70521;BME280;58442;52.716;23.560;2023-09-12T06:29:25;101281.13;;;18.16;76.28
70521;BME280;58442;52.716;23.560;2023-09-12T06:31:26;101287.45;;;18.20;76.25
70521;BME280;58442;52.716;23.560;2023-09-12T06:33:27;101285.48;;;18.24;76.24
70521;BME280;58442;52.716;23.560;2023-09-12T06:35:29;101294.16;;;18.26;76.22
70521;BME280;58442;52.716;23.560;2023-09-12T06:37:39;101294.56;;;18.28;76.23
70521;BME280;58442;52.716;23.560;2023-09-12T06:39:41;101290.63;;;18.29;76.24
70521;BME280;58442;52.716;23.560;2023-09-12T06:41:42;101291.45;;;18.33;76.27
70521;BME280;58442;52.716;23.560;2023-09-12T06:43:44;101289.08;;;18.35;76.25
70521;BME280;58442;52.716;23.560;2023-09-12T06:45:54;101290.29;;;18.41;76.19
70521;BME280;58442;52.716;23.560;2023-09-12T06:47:56;101288.32;;;18.45;76.18
70521;BME280;58442;52.716;23.560;2023-09-12T06:49:57;101295.46;;;18.53;76.15
70521;BME280;58442;52.716;23.560;2023-09-12T06:51:58;101293.10;;;18.59;76.09
70521;BME280;58442;52.716;23.560;2023-09-12T06:54:09;101298.66;;;18.66;76.07
70521;BME280;58442;52.716;23.560;2023-09-12T06:56:10;101296.31;;;18.72;76.10
70521;BME280;58442;52.716;23.560;2023-09-12T06:58:12;101300.27;;;18.78;76.11
70521;BME280;58442;52.716;23.560;2023-09-12T07:00:14;101293.98;;;18.84;76.10
70521;BME280;58442;52.716;23.560;2023-09-12T07:02:26;101296.76;;;18.92;76.04
70521;BME280;58442;52.716;23.560;2023-09-12T07:04:29;101298.73;;;18.98;76.04
70521;BME280;58442;52.716;23.560;2023-09-12T07:06:30;101297.18;;;19.04;76.00
70521;BME280;58442;52.716;23.560;2023-09-12T07:08:34;101296.41;;;19.11;75.90
70521;BME280;58442;52.716;23.560;2023-09-12T07:10:45;101296.41;;;19.18;75.97
70521;BME280;58442;52.716;23.560;2023-09-12T07:12:47;101293.66;;;19.25;75.80
70521;BME280;58442;52.716;23.560;2023-09-12T07:14:48;101300.35;;;19.31;75.78
70521;BME280;58442;52.716;23.560;2023-09-12T07:16:52;101293.67;;;19.36;75.75
70521;BME280;58442;52.716;23.560;2023-09-12T07:18:54;101301.95;;;19.43;75.71
70521;BME280;58442;52.716;23.560;2023-09-12T07:21:00;101301.95;;;19.50;75.70
70521;BME280;58442;52.716;23.560;2023-09-12T07:23:03;101313.38;;;19.59;75.65
70521;BME280;58442;52.716;23.560;2023-09-12T07:25:05;101301.95;;;19.68;75.61
70521;BME280;58442;52.716;23.560;2023-09-12T07:27:09;101305.89;;;19.78;75.47
70521;BME280;58442;52.716;23.560;2023-09-12T07:29:10;101303.50;;;19.87;75.36
70521;BME280;58442;52.716;23.560;2023-09-12T07:31:14;101304.67;;;19.93;75.30
70521;BME280;58442;52.716;23.560;2023-09-12T07:33:15;101305.06;;;19.99;75.24
70521;BME280;58442;52.716;23.560;2023-09-12T07:35:24;101301.87;;;20.04;75.18
70521;BME280;58442;52.716;23.560;2023-09-12T07:37:25;101295.55;;;20.10;75.16
70521;BME280;58442;52.716;23.560;2023-09-12T07:39:27;101299.10;;;20.18;75.04
70521;BME280;58442;52.716;23.560;2023-09-12T07:41:28;101301.05;;;20.25;74.98
70521;BME280;58442;52.716;23.560;2023-09-12T07:43:38;101300.21;;;20.31;74.95
70521;BME280;58442;52.716;23.560;2023-09-12T07:45:41;101306.52;;;20.39;74.94
70521;BME280;58442;52.716;23.560;2023-09-12T07:47:42;101303.35;;;20.47;74.86
70521;BME280;58442;52.716;23.560;2023-09-12T07:49:44;101294.66;;;20.53;74.80
70521;BME280;58442;52.716;23.560;2023-09-12T07:51:53;101296.19;;;20.57;74.75
70521;BME280;58442;52.716;23.560;2023-09-12T07:53:57;101294.59;;;20.63;74.77
70521;BME280;58442;52.716;23.560;2023-09-12T07:56:01;101301.30;;;20.66;74.74
70521;BME280;58442;52.716;23.560;2023-09-12T07:58:03;101302.42;;;20.75;74.65
70521;BME280;58442;52.716;23.560;2023-09-12T08:00:08;101300.81;;;20.82;74.58
70521;BME280;58442;52.716;23.560;2023-09-12T08:02:11;101303.11;;;20.94;74.45
70521;BME280;58442;52.716;23.560;2023-09-12T08:04:13;101302.27;;;21.00;74.41
70521;BME280;58442;52.716;23.560;2023-09-12T08:06:15;101297.09;;;21.06;74.34
70521;BME280;58442;52.716;23.560;2023-09-12T08:08:23;101296.23;;;21.16;74.22
70521;BME280;58442;52.716;23.560;2023-09-12T08:10:25;101295.01;;;21.28;74.10
70521;BME280;58442;52.716;23.560;2023-09-12T08:12:27;101301.27;;;21.36;74.10
70521;BME280;58442;52.716;23.560;2023-09-12T08:14:29;101301.21;;;21.39;74.06
70521;BME280;58442;52.716;23.560;2023-09-12T08:16:38;101298.84;;;21.41;74.04
70521;BME280;58442;52.716;23.560;2023-09-12T08:18:40;101297.23;;;21.44;74.04
70521;BME280;58442;52.716;23.560;2023-09-12T08:20:41;101302.33;;;21.49;74.00
70521;BME280;58442;52.716;23.560;2023-09-12T08:22:44;101295.47;;;21.64;73.73
70521;BME280;58442;52.716;23.560;2023-09-12T08:24:53;101299.66;;;21.79;73.45
70521;BME280;58442;52.716;23.560;2023-09-12T08:26:54;101304.34;;;21.86;73.41
70521;BME280;58442;52.716;23.560;2023-09-12T08:28:56;101302.66;;;21.96;73.25
70521;BME280;58442;52.716;23.560;2023-09-12T08:30:57;101311.64;;;22.07;73.00
70521;BME280;58442;52.716;23.560;2023-09-12T08:33:08;101308.01;;;22.17;72.83
70521;BME280;58442;52.716;23.560;2023-09-12T08:35:10;101309.08;;;22.27;72.68
70521;BME280;58442;52.716;23.560;2023-09-12T08:37:13;101305.86;;;22.32;72.57
70521;BME280;58442;52.716;23.560;2023-09-12T08:39:17;101308.09;;;22.44;72.37
70521;BME280;58442;52.716;23.560;2023-09-12T08:41:22;101309.05;;;22.61;72.10
70521;BME280;58442;52.716;23.560;2023-09-12T08:43:24;101311.30;;;22.70;71.93
70521;BME280;58442;52.716;23.560;2023-09-12T08:45:26;101303.20;;;22.82;71.67
70521;BME280;58442;52.716;23.560;2023-09-12T08:47:28;101300.72;;;22.91;71.47
70521;BME280;58442;52.716;23.560;2023-09-12T08:49:38;101306.47;;;23.04;71.22
70521;BME280;58442;52.716;23.560;2023-09-12T08:51:40;101310.03;;;23.05;71.26
70521;BME280;58442;52.716;23.560;2023-09-12T08:53:42;101311.66;;;23.02;71.29
70521;BME280;58442;52.716;23.560;2023-09-12T08:55:43;101311.70;;;22.99;71.34
70521;BME280;58442;52.716;23.560;2023-09-12T08:57:53;101316.11;;;22.96;71.40
70521;BME280;58442;52.716;23.560;2023-09-12T08:59:56;101315.28;;;22.99;71.39
70521;BME280;58442;52.716;23.560;2023-09-12T09:01:59;101305.98;;;23.13;71.13
70521;BME280;58442;52.716;23.560;2023-09-12T09:04:02;101305.36;;;23.25;70.93
70521;BME280;58442;52.716;23.560;2023-09-12T09:06:11;101307.55;;;23.37;70.76
70521;BME280;58442;52.716;23.560;2023-09-12T09:08:14;101311.65;;;23.53;70.60
70521;BME280;58442;52.716;23.560;2023-09-12T09:10:17;101311.03;;;23.68;70.29
70521;BME280;58442;52.716;23.560;2023-09-12T09:12:19;101306.83;;;23.80;70.09
70521;BME280;58442;52.716;23.560;2023-09-12T09:14:21;101303.87;;;23.91;70.00
70521;BME280;58442;52.716;23.560;2023-09-12T09:16:23;101300.88;;;24.01;69.81
70521;BME280;58442;52.716;23.560;2023-09-12T09:18:25;101303.89;;;24.11;69.60
70521;BME280;58442;52.716;23.560;2023-09-12T09:20:31;101297.33;;;24.21;69.42
70521;BME280;58442;52.716;23.560;2023-09-12T09:22:36;101301.52;;;24.29;69.22
70521;BME280;58442;52.716;23.560;2023-09-12T09:24:37;101305.66;;;24.21;69.24
70521;BME280;58442;52.716;23.560;2023-09-12T09:26:48;101309.30;;;24.18;69.15
70521;BME280;58442;52.716;23.560;2023-09-12T09:29:03;101311.73;;;24.16;69.00
70521;BME280;58442;52.716;23.560;2023-09-12T09:31:10;101315.00;;;24.11;69.00
70521;BME280;58442;52.716;23.560;2023-09-12T09:33:13;101307.80;;;24.13;68.83
70521;BME280;58442;52.716;23.560;2023-09-12T09:35:14;101302.96;;;24.17;68.79
70521;BME280;58442;52.716;23.560;2023-09-12T09:37:16;101309.16;;;24.25;68.59
70521;BME280;58442;52.716;23.560;2023-09-12T09:39:23;101303.66;;;24.21;68.64
70521;BME280;58442;52.716;23.560;2023-09-12T09:41:26;101301.46;;;24.13;68.89
70521;BME280;58442;52.716;23.560;2023-09-12T09:43:30;101303.11;;;24.10;68.92
70521;BME280;58442;52.716;23.560;2023-09-12T09:47:46;101300.04;;;24.05;69.17
70521;BME280;58442;52.716;23.560;2023-09-12T09:49:47;101303.11;;;24.10;69.11
70521;BME280;58442;52.716;23.560;2023-09-12T09:51:48;101304.88;;;24.20;68.95
70521;BME280;58442;52.716;23.560;2023-09-12T09:53:53;101294.05;;;24.26;68.88
70521;BME280;58442;52.716;23.560;2023-09-12T09:56:15;101296.27;;;24.35;68.81
70521;BME280;58442;52.716;23.560;2023-09-12T09:58:16;101293.13;;;24.52;68.48
70521;BME280;58442;52.716;23.560;2023-09-12T10:00:20;101291.70;;;24.64;68.30
70521;BME280;58442;52.716;23.560;2023-09-12T10:02:25;101295.72;;;24.79;68.14
70521;BME280;58442;52.716;23.560;2023-09-12T10:04:27;101287.05;;;24.94;67.87
70521;BME280;58442;52.716;23.560;2023-09-12T10:06:29;101285.23;;;25.03;67.69
70521;BME280;58442;52.716;23.560;2023-09-12T10:08:33;101279.00;;;25.16;67.52
70521;BME280;58442;52.716;23.560;2023-09-12T10:10:35;101295.01;;;25.28;67.32
70521;BME280;58442;52.716;23.560;2023-09-12T10:12:45;101284.37;;;25.39;67.08
70521;BME280;58442;52.716;23.560;2023-09-12T10:14:49;101279.66;;;25.52;66.85
70521;BME280;58442;52.716;23.560;2023-09-12T10:16:59;101284.17;;;25.62;66.51
70521;BME280;58442;52.716;23.560;2023-09-12T10:21:30;101268.23;;;25.79;65.90
70521;BME280;58442;52.716;23.560;2023-09-12T10:23:41;101285.53;;;25.87;65.67
70521;BME280;58442;52.716;23.560;2023-09-12T10:25:45;101281.88;;;25.90;65.29
70521;BME280;58442;52.716;23.560;2023-09-12T10:27:46;101279.76;;;25.94;65.04
70521;BME280;58442;52.716;23.560;2023-09-12T10:29:49;101282.46;;;25.98;64.82
70521;BME280;58442;52.716;23.560;2023-09-12T10:31:55;101274.11;;;25.98;64.65
70521;BME280;58442;52.716;23.560;2023-09-12T10:33:58;101276.00;;;26.01;64.30
70521;BME280;58442;52.716;23.560;2023-09-12T10:36:03;101273.04;;;26.08;64.37
70521;BME280;58442;52.716;23.560;2023-09-12T10:38:07;101279.59;;;26.01;64.23
70521;BME280;58442;52.716;23.560;2023-09-12T10:40:11;101268.54;;;25.98;64.35
70521;BME280;58442;52.716;23.560;2023-09-12T10:42:16;101273.61;;;25.86;64.59
70521;BME280;58442;52.716;23.560;2023-09-12T10:44:18;101269.46;;;25.78;64.83
70521;BME280;58442;52.716;23.560;2023-09-12T10:46:22;101273.03;;;25.79;64.88
70521;BME280;58442;52.716;23.560;2023-09-12T10:48:24;101269.13;;;25.76;64.90